createdAt,value
2023-04-01T00:01:11.211Z,97914.47
2023-04-01T00:03:38.305Z,97916.19
2023-04-01T00:06:05.015Z,97911.06
2023-04-01T00:08:31.624Z,97910.22
2023-04-01T00:10:58.520Z,97903.41
2023-04-01T00:13:28.371Z,97907.66
2023-04-01T00:15:56.225Z,97916.16
2023-04-01T00:18:23.401Z,97904.22
2023-04-01T00:20:51.400Z,97899.97
2023-04-01T00:23:18.405Z,97905.91
2023-04-01T00:25:45.130Z,97905.06
2023-04-01T00:28:11.853Z,97903.34
2023-04-01T00:30:38.935Z,97897.41
2023-04-01T00:33:05.942Z,97894.84
2023-04-01T00:35:33.498Z,97894.84
2023-04-01T00:38:00.569Z,97890.59
2023-04-01T00:40:34.577Z,97897.41
2023-04-01T00:43:01.188Z,97892.31
2023-04-01T00:45:29.890Z,97886.34
2023-04-01T00:47:57.513Z,97898.25
2023-04-01T00:50:25.970Z,97895.69
2023-04-01T00:52:53.554Z,97891.47
2023-04-01T00:55:22.431Z,97887.22
2023-04-01T00:57:49.690Z,97893.19
2023-04-01T01:00:16.950Z,97888.06
2023-04-01T01:02:45.491Z,97888.91
2023-04-01T01:05:15.550Z,97888.06
2023-04-01T01:08:00.370Z,97893.19
2023-04-01T01:10:26.948Z,97894.00
2023-04-01T01:12:53.500Z,97894.88
2023-04-01T01:15:27.837Z,97893.19
2023-04-01T01:18:04.442Z,97896.56
2023-04-01T01:20:34.038Z,97894.88
2023-04-01T01:23:00.757Z,97896.56
2023-04-01T01:25:30.234Z,97894.84
2023-04-01T01:28:09.540Z,97899.91
2023-04-01T01:30:39.952Z,97899.94
2023-04-01T01:33:32.800Z,97905.00
2023-04-01T01:36:00.898Z,97896.50
2023-04-01T01:38:30.796Z,97897.34
2023-04-01T01:40:58.926Z,97894.78
2023-04-01T01:43:27.147Z,97894.75
2023-04-01T01:45:56.036Z,97896.44
2023-04-01T01:48:24.220Z,97902.41
2023-04-01T01:50:51.332Z,97895.59
2023-04-01T01:53:17.924Z,97894.72
2023-04-01T01:55:46.505Z,97901.50
2023-04-01T01:58:28.683Z,97894.69
2023-04-01T02:01:00.793Z,97896.38
2023-04-01T02:03:30.207Z,97894.72
2023-04-01T02:05:58.369Z,97901.47
2023-04-01T02:08:27.894Z,97910.00
2023-04-01T02:11:01.128Z,97904.91
2023-04-01T02:13:35.669Z,97904.91
2023-04-01T02:16:05.879Z,97904.91
2023-04-01T02:18:34.380Z,97910.00
2023-04-01T02:21:01.653Z,97904.91
2023-04-01T02:23:28.916Z,97908.34
2023-04-01T02:25:55.991Z,97909.19
2023-04-01T02:28:24.164Z,97909.16
2023-04-01T02:30:51.225Z,97912.53
2023-04-01T02:33:18.133Z,97913.41
2023-04-01T02:35:44.765Z,97920.19
2023-04-01T02:38:11.338Z,97916.78
2023-04-01T02:40:45.748Z,97914.22
2023-04-01T02:43:12.491Z,97916.78
2023-04-01T02:45:39.199Z,97915.94
2023-04-01T02:48:06.340Z,97915.09
2023-04-01T02:50:33.050Z,97918.53
2023-04-01T02:52:59.624Z,97921.09
2023-04-01T02:55:26.296Z,97920.22
2023-04-01T02:57:52.982Z,97920.22
2023-04-01T03:00:19.747Z,97923.63
2023-04-01T03:02:46.367Z,97921.09
2023-04-01T03:05:13.788Z,97921.09
2023-04-01T03:07:40.673Z,97928.75
2023-04-01T03:10:07.968Z,97921.94
2023-04-01T03:12:34.674Z,97922.75
2023-04-01T03:15:11.117Z,97929.53
2023-04-01T03:17:38.903Z,97930.41
2023-04-01T03:20:05.932Z,97938.06
2023-04-01T03:22:32.540Z,97942.28
2023-04-01T03:24:59.058Z,97945.69
2023-04-01T03:27:25.627Z,97938.91
2023-04-01T03:29:52.280Z,97938.09
2023-04-01T03:32:18.855Z,97947.44
2023-04-01T03:34:45.652Z,97944.03
2023-04-01T03:37:12.319Z,97939.78
2023-04-01T03:39:39.983Z,97950.84
2023-04-01T03:42:07.616Z,97946.63
2023-04-01T03:44:34.851Z,97955.09
2023-04-01T03:47:01.598Z,97955.97
2023-04-01T03:49:28.164Z,97961.06
2023-04-01T03:51:54.771Z,97964.44
2023-04-01T03:54:21.700Z,97967.88
2023-04-01T03:56:48.333Z,97971.25
2023-04-01T03:59:15.058Z,97971.25
2023-04-01T04:01:41.573Z,97977.22
2023-04-01T04:04:08.438Z,97976.34
2023-04-01T04:06:35.144Z,97982.28
2023-04-01T04:09:01.701Z,97983.16
2023-04-01T04:11:28.355Z,97984.88
2023-04-01T04:13:56.516Z,97988.28
2023-04-01T04:16:23.904Z,97984.94
2023-04-01T04:18:51.966Z,97988.34
2023-04-01T04:21:18.598Z,97990.91
2023-04-01T04:23:45.199Z,97993.50
2023-04-01T04:26:13.118Z,98001.16
2023-04-01T04:28:40.233Z,97990.97
2023-04-01T04:31:07.456Z,97996.97
2023-04-01T04:33:35.014Z,98006.34
2023-04-01T04:36:01.715Z,98002.94
2023-04-01T04:38:28.500Z,98002.13
2023-04-01T04:40:55.327Z,98002.13
2023-04-01T04:43:22.399Z,98005.56
2023-04-01T04:45:48.939Z,98005.56
2023-04-01T04:48:19.944Z,98003.88
2023-04-01T04:50:50.253Z,98019.22
2023-04-01T04:53:17.819Z,98012.44
2023-04-01T04:55:45.479Z,98021.78
2023-04-01T04:58:12.148Z,98027.75
2023-04-01T05:00:38.717Z,98020.09
2023-04-01T05:03:05.629Z,98021.81
2023-04-01T05:05:32.405Z,98020.13
2023-04-01T05:07:59.370Z,98019.28
2023-04-01T05:10:26.229Z,98024.41
2023-04-01T05:12:52.769Z,98032.94
2023-04-01T05:15:19.396Z,98032.94
2023-04-01T05:17:46.069Z,98032.97
2023-04-01T05:20:15.916Z,98034.66
2023-04-01T05:22:42.671Z,98038.09
2023-04-01T05:25:09.288Z,98034.75
2023-04-01T05:27:35.831Z,98039.88
2023-04-01T05:30:02.456Z,98043.31
2023-04-01T05:32:31.799Z,98043.34
2023-04-01T05:34:58.404Z,98042.50
2023-04-01T05:37:25.000Z,98043.41
2023-04-01T05:39:51.566Z,98044.25
2023-04-01T05:42:18.222Z,98043.41
2023-04-01T05:44:44.745Z,98050.25
2023-04-01T05:47:11.379Z,98041.75
2023-04-01T05:49:37.958Z,98055.44
2023-04-01T05:52:04.493Z,98053.75
2023-04-01T05:54:31.095Z,98053.75
2023-04-01T05:56:57.691Z,98058.91
2023-04-01T05:59:24.214Z,98059.75
2023-04-01T06:01:51.030Z,98058.94
2023-04-01T06:04:18.706Z,98064.06
2023-04-01T06:06:45.450Z,98067.47
2023-04-01T06:09:15.199Z,98059.81
2023-04-01T06:11:47.914Z,98060.69
2023-04-01T06:14:27.386Z,98062.41
2023-04-01T06:16:56.700Z,98057.28
2023-04-01T06:19:23.346Z,98069.22
2023-04-01T06:21:52.798Z,98077.72
2023-04-01T06:24:26.428Z,98074.31
2023-04-01T06:27:04.952Z,98069.19
2023-04-01T06:29:46.829Z,98077.69
2023-04-01T06:32:31.833Z,98076.88
2023-04-01T06:35:16.813Z,98085.38
2023-04-01T06:37:43.412Z,98082.81
2023-04-01T06:40:09.897Z,98086.22
2023-04-01T06:42:55.138Z,98089.66
2023-04-01T06:45:40.821Z,98085.41
2023-04-01T06:48:16.637Z,98091.41
2023-04-01T06:50:46.492Z,98093.13
2023-04-01T06:53:16.268Z,98092.25
2023-04-01T06:55:48.374Z,98098.22
2023-04-01T06:58:21.705Z,98101.66
2023-04-01T07:00:50.430Z,98099.94
2023-04-01T07:03:22.704Z,98099.06
2023-04-01T07:05:49.753Z,98105.06
2023-04-01T07:08:19.263Z,98103.34
2023-04-01T07:10:45.946Z,98104.19
2023-04-01T07:13:22.523Z,98103.34
2023-04-01T07:15:57.947Z,98101.63
2023-04-01T07:18:32.701Z,98108.44
2023-04-01T07:20:59.922Z,98100.75
2023-04-01T07:23:29.643Z,98102.44
2023-04-01T07:26:12.107Z,98104.97
2023-04-01T07:28:38.687Z,98103.22
2023-04-01T07:31:17.306Z,98111.75
2023-04-01T07:34:02.753Z,98113.47
2023-04-01T07:36:29.243Z,98112.59
2023-04-01T07:38:59.205Z,98113.44
2023-04-01T07:41:55.323Z,98110.00
2023-04-01T07:44:26.651Z,98116.81
2023-04-01T07:47:12.202Z,98121.88
2023-04-01T07:49:47.820Z,98126.97
2023-04-01T07:52:25.376Z,98125.19
2023-04-01T07:54:58.979Z,98121.78
2023-04-01T07:57:31.807Z,98129.41
2023-04-01T07:59:58.891Z,98126.72
2023-04-01T08:02:25.486Z,98124.84
2023-04-01T08:04:52.147Z,98126.47
2023-04-01T08:07:27.290Z,98123.81
2023-04-01T08:10:03.285Z,98139.16
2023-04-01T08:12:40.345Z,98130.53
2023-04-01T08:15:12.805Z,98133.94
2023-04-01T08:17:58.135Z,98131.31
2023-04-01T08:20:27.694Z,98131.38
2023-04-01T08:23:04.802Z,98136.38
2023-04-01T08:25:33.629Z,98138.06
2023-04-01T08:28:21.643Z,98136.41
2023-04-01T08:30:48.299Z,98144.84
2023-04-01T08:33:14.830Z,98141.34
2023-04-01T08:35:51.563Z,98142.13
2023-04-01T08:38:28.358Z,98146.44
2023-04-01T08:41:02.660Z,98140.59
2023-04-01T08:43:38.280Z,98151.00
2023-04-01T08:46:04.998Z,98153.59
2023-04-01T08:48:34.751Z,98158.88
2023-04-01T08:51:07.410Z,98152.91
2023-04-01T08:53:51.490Z,98156.25
2023-04-01T08:56:24.282Z,98158.88
2023-04-01T08:59:05.886Z,98157.03
2023-04-01T09:01:51.541Z,98162.13
2023-04-01T09:04:32.843Z,98151.84
2023-04-01T09:06:59.520Z,98162.97
2023-04-01T09:09:41.623Z,98155.25
2023-04-01T09:12:29.850Z,98168.91
2023-04-01T09:15:15.141Z,98171.47
2023-04-01T09:17:48.037Z,98168.81
2023-04-01T09:20:14.643Z,98170.44
2023-04-01T09:22:44.323Z,98169.50
2023-04-01T09:25:31.490Z,98172.81
2023-04-01T09:28:04.035Z,98175.34
2023-04-01T09:30:34.795Z,98170.91
2023-04-01T09:33:19.517Z,98181.94
2023-04-01T09:35:48.947Z,98186.13
2023-04-01T09:38:18.808Z,98181.88
2023-04-01T09:40:57.459Z,98198.16
2023-04-01T09:43:27.035Z,98196.44
2023-04-01T09:46:03.608Z,98191.34
2023-04-01T09:48:30.462Z,98200.78
2023-04-01T09:51:23.445Z,98200.75
2023-04-01T09:54:10.312Z,98196.34
2023-04-01T09:56:53.306Z,98206.50
2023-04-01T09:59:26.465Z,98207.25
2023-04-01T10:01:53.841Z,98202.09
2023-04-01T10:04:20.575Z,98207.06
2023-04-01T10:07:06.078Z,98201.72
2023-04-01T10:09:47.559Z,98209.97
2023-04-01T10:12:17.755Z,98208.03
2023-04-01T10:14:59.310Z,98220.19
2023-04-01T10:17:25.957Z,98214.28
2023-04-01T10:20:11.342Z,98215.06
2023-04-01T10:22:50.240Z,98211.59
2023-04-01T10:25:16.787Z,98214.03
2023-04-01T10:27:58.341Z,98219.56
2023-04-01T10:30:24.917Z,98215.22
2023-04-01T10:33:16.285Z,98206.78
2023-04-01T10:36:01.681Z,98216.63
2023-04-01T10:38:57.761Z,98204.00
2023-04-01T10:41:25.936Z,98221.19
2023-04-01T10:44:32.922Z,98123.47
2023-04-01T10:47:30.076Z,98202.59
2023-04-01T10:50:02.406Z,98214.13
2023-04-01T10:52:29.076Z,98209.59
2023-04-01T10:55:08.572Z,98216.63
2023-04-01T10:57:47.378Z,97748.59
2023-04-01T11:00:32.083Z,98177.59
2023-04-01T11:03:17.549Z,97951.88
2023-04-01T11:06:02.298Z,97959.72
2023-04-01T11:08:47.615Z,98293.81
2023-04-01T11:11:26.842Z,97931.91
2023-04-01T11:13:53.360Z,98213.22
2023-04-01T11:16:32.259Z,97815.44
2023-04-01T11:19:14.252Z,98134.91
2023-04-01T11:21:59.469Z,98059.13
2023-04-01T11:24:25.961Z,98236.41
2023-04-01T11:27:11.262Z,98288.03
2023-04-01T11:29:47.032Z,98304.16
2023-04-01T11:32:29.584Z,98019.31
2023-04-01T11:35:15.354Z,98152.91
2023-04-01T11:37:58.597Z,98173.97
2023-04-01T11:40:45.378Z,98020.94
2023-04-01T11:43:26.197Z,98188.59
2023-04-01T11:46:05.725Z,98314.06
2023-04-01T11:48:41.204Z,98254.34
2023-04-01T11:51:16.773Z,98292.72
2023-04-01T11:53:46.329Z,98283.53
2023-04-01T11:56:28.180Z,98250.22
2023-04-01T11:59:18.049Z,98269.41
2023-04-01T12:01:53.614Z,98230.88
2023-04-01T12:04:39.038Z,98298.38
2023-04-01T12:07:08.353Z,98241.50
2023-04-01T12:09:53.466Z,98272.28
2023-04-01T12:12:20.037Z,98219.72
2023-04-01T12:14:56.555Z,98270.47
2023-04-01T12:17:46.405Z,98224.88
2023-04-01T12:20:13.042Z,98270.84
2023-04-01T12:22:39.578Z,98244.13
2023-04-01T12:25:35.627Z,98295.94
2023-04-01T12:28:02.420Z,98195.25
2023-04-01T12:30:28.983Z,98234.00
2023-04-01T12:33:06.228Z,98237.41
2023-04-01T12:35:38.665Z,98271.91
2023-04-01T12:38:12.495Z,98272.75
2023-04-01T12:40:45.471Z,98270.41
2023-04-01T12:43:11.985Z,98288.56
2023-04-01T12:45:50.880Z,98284.22
2023-04-01T12:48:26.823Z,98127.44
2023-04-01T12:50:53.409Z,98125.88
2023-04-01T12:53:29.194Z,98150.91
2023-04-01T12:55:56.725Z,98260.25
2023-04-01T12:58:33.255Z,98270.72
2023-04-01T13:00:59.789Z,98301.81
2023-04-01T13:03:38.788Z,98265.66
2023-04-01T13:06:21.418Z,98306.97
2023-04-01T13:08:48.666Z,98279.53
2023-04-01T13:11:18.006Z,98302.19
2023-04-01T13:13:55.128Z,98319.53
2023-04-01T13:16:26.123Z,98316.38
2023-04-01T13:19:03.573Z,98322.47
2023-04-01T13:21:33.193Z,98323.47
2023-04-01T13:24:05.954Z,98321.97
2023-04-01T13:26:51.297Z,98320.38
2023-04-01T13:29:21.367Z,98328.22
2023-04-01T13:31:48.100Z,98317.03
2023-04-01T13:34:23.663Z,98319.78
2023-04-01T13:36:53.257Z,98322.59
2023-04-01T13:39:25.834Z,98326.13
2023-04-01T13:41:52.379Z,98329.56
2023-04-01T13:44:24.070Z,98326.16
2023-04-01T13:47:26.375Z,98331.31
2023-04-01T13:49:52.961Z,98334.00
2023-04-01T13:52:54.740Z,98323.81
2023-04-01T13:55:27.197Z,98332.41
2023-04-01T13:58:04.083Z,98339.38
2023-04-01T14:00:39.639Z,98342.78
2023-04-01T14:03:12.026Z,98332.38
2023-04-01T14:05:43.959Z,98335.00
2023-04-01T14:08:29.397Z,98335.03
2023-04-01T14:11:05.722Z,98342.88
2023-04-01T14:13:36.521Z,98345.47
2023-04-01T14:16:15.583Z,98346.34
2023-04-01T14:18:48.377Z,98353.25
2023-04-01T14:21:17.946Z,98345.50
2023-04-01T14:23:47.490Z,98353.34
2023-04-01T14:26:14.199Z,98352.53
2023-04-01T14:28:40.790Z,98351.66
2023-04-01T14:31:26.147Z,98354.22
2023-04-01T14:33:55.539Z,98355.13
2023-04-01T14:36:34.523Z,98359.47
2023-04-01T14:39:12.162Z,98356.88
2023-04-01T14:41:38.870Z,98363.78
2023-04-01T14:44:17.782Z,98361.16
2023-04-01T14:47:02.766Z,98370.72
2023-04-01T14:49:32.408Z,98371.63
2023-04-01T14:52:06.801Z,98376.81
2023-04-01T14:54:36.852Z,98381.25
2023-04-01T14:57:09.335Z,98376.97
2023-04-01T14:59:40.031Z,98380.47
2023-04-01T15:02:25.526Z,98388.22
2023-04-01T15:05:11.700Z,98378.91
2023-04-01T15:07:57.184Z,98393.56
2023-04-01T15:10:42.344Z,98380.69
2023-04-01T15:13:21.454Z,98394.44
2023-04-01T15:16:01.294Z,98397.00
2023-04-01T15:18:31.352Z,98392.72
2023-04-01T15:21:17.271Z,98393.59
2023-04-01T15:23:46.600Z,98407.34
2023-04-01T15:26:18.623Z,98400.47
2023-04-01T15:28:48.347Z,98408.19
2023-04-01T15:31:19.979Z,98399.59
2023-04-01T15:33:46.693Z,98411.59
2023-04-01T15:36:28.360Z,98410.78
2023-04-01T15:39:01.627Z,98419.34
2023-04-01T15:41:44.357Z,98422.75
2023-04-01T15:44:39.289Z,98427.00
2023-04-01T15:47:29.181Z,98430.47
2023-04-01T15:50:14.625Z,98430.44
2023-04-01T15:52:50.490Z,98436.47
2023-04-01T15:55:17.027Z,98444.25
2023-04-01T15:57:53.372Z,98445.13
2023-04-01T16:00:30.766Z,98450.34
2023-04-01T16:03:09.358Z,98452.91
2023-04-01T16:05:45.887Z,98455.53
2023-04-01T16:08:15.522Z,98464.13
2023-04-01T16:11:17.410Z,98466.78
2023-04-01T16:14:04.229Z,98465.91
2023-04-01T16:16:37.024Z,98464.28
2023-04-01T16:19:11.394Z,98477.19
2023-04-01T16:21:44.215Z,98477.25
2023-04-01T16:24:18.629Z,98472.13
2023-04-01T16:26:49.703Z,98484.16
2023-04-01T16:29:16.236Z,98484.22
2023-04-01T16:31:52.139Z,98491.09
2023-04-01T16:34:22.408Z,98490.25
2023-04-01T16:36:52.679Z,98489.41
2023-04-01T16:39:28.708Z,98492.88
2023-04-01T16:42:07.606Z,98498.06
2023-04-01T16:44:47.981Z,98499.81
2023-04-01T16:47:18.264Z,98495.50
2023-04-01T16:49:51.913Z,98498.97
2023-04-01T16:52:37.513Z,98492.94
2023-04-01T16:55:13.542Z,98498.06
2023-04-01T16:57:40.064Z,98504.06
2023-04-01T17:00:16.111Z,98503.22
2023-04-01T17:03:02.903Z,98503.22
2023-04-01T17:05:55.876Z,98508.34
2023-04-01T17:08:25.544Z,98508.38
2023-04-01T17:10:59.020Z,98500.66
2023-04-01T17:13:32.411Z,98512.63
2023-04-01T17:16:06.157Z,98510.94
2023-04-01T17:18:41.900Z,98515.19
2023-04-01T17:21:29.453Z,98516.91
2023-04-01T17:24:14.963Z,98517.78
2023-04-01T17:26:44.300Z,98520.34
2023-04-01T17:29:18.515Z,98516.91
2023-04-01T17:31:51.247Z,98517.78
2023-04-01T17:34:27.214Z,98511.78
2023-04-01T17:36:53.803Z,98515.19
2023-04-01T17:39:26.186Z,98523.78
2023-04-01T17:42:06.483Z,98522.91
2023-04-01T17:44:46.550Z,98522.06
2023-04-01T17:47:30.494Z,98522.91
2023-04-01T17:50:02.822Z,98528.94
2023-04-01T17:52:43.060Z,98528.06
2023-04-01T17:55:28.212Z,98532.34
2023-04-01T17:58:24.308Z,98536.63
2023-04-01T18:00:54.308Z,98534.88
2023-04-01T18:03:44.336Z,98528.91
2023-04-01T18:06:16.009Z,98537.47
2023-04-01T18:08:42.540Z,98532.34
2023-04-01T18:11:28.096Z,98530.63
2023-04-01T18:13:54.640Z,98542.59
2023-04-01T18:16:53.574Z,98537.47
2023-04-01T18:19:28.930Z,98537.47
2023-04-01T18:22:18.772Z,98544.34
2023-04-01T18:25:00.857Z,98551.19
2023-04-01T18:27:47.758Z,98561.50
2023-04-01T18:30:29.357Z,98559.75
2023-04-01T18:33:10.567Z,98570.91
2023-04-01T18:35:55.482Z,98576.91
2023-04-01T18:38:31.141Z,98575.19
2023-04-01T18:41:17.952Z,98581.22
2023-04-01T18:43:57.839Z,98577.78
2023-04-01T18:46:37.983Z,98580.34
2023-04-01T18:49:23.574Z,98581.22
2023-04-01T18:52:08.636Z,98587.22
2023-04-01T18:54:43.608Z,98582.06
2023-04-01T18:57:17.508Z,98588.91
2023-04-01T18:59:47.979Z,98583.75
2023-04-01T19:02:27.922Z,98594.06
2023-04-01T19:05:01.546Z,98588.91
2023-04-01T19:07:37.440Z,98586.38
2023-04-01T19:10:14.801Z,98587.22
2023-04-01T19:12:47.401Z,98587.22
2023-04-01T19:15:14.001Z,98590.66
2023-04-01T19:17:48.228Z,98585.50
2023-04-01T19:20:20.105Z,98590.63
2023-04-01T19:22:49.470Z,98594.06
2023-04-01T19:25:28.281Z,98601.81
2023-04-01T19:28:00.523Z,98602.66
2023-04-01T19:30:37.478Z,98604.38
2023-04-01T19:33:07.198Z,98611.25
2023-04-01T19:35:52.626Z,98611.25
2023-04-01T19:38:19.295Z,98613.81
2023-04-01T19:40:48.600Z,98610.38
2023-04-01T19:43:18.377Z,98607.78
2023-04-01T19:46:25.626Z,98618.09
2023-04-01T19:49:01.248Z,98616.38
2023-04-01T19:51:36.731Z,98616.38
2023-04-01T19:54:13.003Z,98618.97
2023-04-01T19:56:46.078Z,98609.50
2023-04-01T19:59:38.766Z,98609.50
2023-04-01T20:02:08.602Z,98621.53
2023-04-01T20:04:42.234Z,98621.53
2023-04-01T20:07:18.919Z,98616.38
2023-04-01T20:10:04.362Z,98617.22
2023-04-01T20:12:31.613Z,98618.94
2023-04-01T20:15:04.819Z,98617.22
2023-04-01T20:17:43.069Z,98617.22
2023-04-01T20:20:09.938Z,98621.50
2023-04-01T20:22:45.728Z,98617.22
2023-04-01T20:25:12.633Z,98625.81
2023-04-01T20:27:43.099Z,98624.94
2023-04-01T20:30:22.916Z,98630.06
2023-04-01T20:33:08.424Z,98628.34
2023-04-01T20:35:41.551Z,98626.63
2023-04-01T20:38:26.756Z,98624.06
2023-04-01T20:41:03.815Z,98625.78
2023-04-01T20:43:34.795Z,98630.06
2023-04-01T20:46:09.005Z,98624.94
2023-04-01T20:48:44.531Z,98627.47
2023-04-01T20:51:14.694Z,98630.91
2023-04-01T20:53:45.106Z,98625.78
2023-04-01T20:56:14.510Z,98626.63
2023-04-01T20:58:51.312Z,98629.19
2023-04-01T21:01:21.149Z,98632.63
2023-04-01T21:04:01.547Z,98630.03
2023-04-01T21:06:46.883Z,98630.03
2023-04-01T21:09:31.288Z,98627.44
2023-04-01T21:11:57.993Z,98635.19
2023-04-01T21:14:33.326Z,98638.59
2023-04-01T21:16:59.848Z,98634.31
2023-04-01T21:19:29.458Z,98632.59
2023-04-01T21:22:14.931Z,98644.59
2023-04-01T21:24:47.469Z,98636.03
2023-04-01T21:27:21.602Z,98648.88
2023-04-01T21:29:48.197Z,98646.28
2023-04-01T21:32:16.573Z,98657.47
2023-04-01T21:34:50.725Z,98645.44
2023-04-01T21:37:28.196Z,98650.59
2023-04-01T21:40:01.066Z,98643.72
2023-04-01T21:42:30.956Z,98654.06
2023-04-01T21:45:11.475Z,98661.75
2023-04-01T21:47:50.665Z,98658.31
2023-04-01T21:50:35.966Z,98662.63
2023-04-01T21:53:05.679Z,98668.59
2023-04-01T21:55:41.380Z,98672.91
2023-04-01T21:58:07.947Z,98674.59
2023-04-01T22:00:39.275Z,98672.03
2023-04-01T22:03:19.830Z,98669.47
2023-04-01T22:05:56.956Z,98674.59
2023-04-01T22:08:34.747Z,98666.00
2023-04-01T22:11:24.692Z,98662.59
2023-04-01T22:13:56.023Z,98661.72
2023-04-01T22:16:33.221Z,98669.44
2023-04-01T22:19:02.876Z,98659.13
2023-04-01T22:21:45.921Z,98653.97
2023-04-01T22:24:18.036Z,98664.25
2023-04-01T22:26:45.126Z,98665.97
2023-04-01T22:29:15.817Z,98662.50
2023-04-01T22:31:48.650Z,98668.50
2023-04-01T22:34:24.488Z,98668.50
2023-04-01T22:36:57.763Z,98670.22
2023-04-01T22:39:24.291Z,98673.66
2023-04-01T22:41:53.764Z,98672.81
2023-04-01T22:44:28.435Z,98674.53
2023-04-01T22:47:06.397Z,98672.81
2023-04-01T22:49:59.049Z,98676.28
2023-04-01T22:52:32.439Z,98674.56
2023-04-01T22:55:05.498Z,98678.00
2023-04-01T22:57:50.859Z,98677.16
2023-04-01T23:00:36.590Z,98676.31
2023-04-01T23:03:26.620Z,98671.19
2023-04-01T23:05:54.499Z,98673.75
2023-04-01T23:08:39.395Z,98669.47
2023-04-01T23:11:10.412Z,98673.75
2023-04-01T23:13:40.467Z,98669.50
2023-04-01T23:16:08.032Z,98666.91
2023-04-01T23:18:46.822Z,98672.94
2023-04-01T23:21:23.966Z,98672.91
2023-04-01T23:23:59.325Z,98673.75
2023-04-01T23:26:43.972Z,98679.75
2023-04-01T23:29:20.626Z,98682.31
2023-04-01T23:31:48.450Z,98681.47
2023-04-01T23:34:15.104Z,98689.19
2023-04-01T23:36:41.650Z,98682.31
2023-04-01T23:39:20.709Z,98683.19
2023-04-01T23:41:47.242Z,98683.16
2023-04-01T23:44:14.600Z,98695.19
2023-04-01T23:46:43.419Z,98685.78
2023-04-01T23:49:14.123Z,98695.19
2023-04-01T23:51:50.008Z,98689.16
2023-04-01T23:54:24.207Z,98688.31
2023-04-01T23:56:56.162Z,98691.75
2023-04-01T23:59:32.826Z,98690.91
